createdAt,value
2019-04-29T00:00:58.260Z,6.10
2019-04-29T00:03:27.668Z,6.20
2019-04-29T00:05:56.870Z,6.10
2019-04-29T00:08:26.086Z,6.10
2019-04-29T00:10:55.392Z,6.00
2019-04-29T00:13:25.669Z,6.00
2019-04-29T00:19:13.952Z,6.00
2019-04-29T00:21:43.361Z,6.00
2019-04-29T00:24:12.481Z,5.90
2019-04-29T00:26:41.946Z,5.90
2019-04-29T00:29:11.368Z,5.90
2019-04-29T00:31:41.353Z,5.90
2019-04-29T00:34:14.748Z,5.90
2019-04-29T00:36:53.916Z,5.80
2019-04-29T00:39:42.092Z,5.80
2019-04-29T00:42:25.199Z,5.90
2019-04-29T00:44:54.665Z,5.90
2019-04-29T00:47:24.242Z,5.80
2019-04-29T00:49:54.968Z,5.80
2019-04-29T00:52:24.540Z,5.80
2019-04-29T00:55:00.161Z,5.80
2019-04-29T00:57:29.324Z,5.80
2019-04-29T00:59:58.452Z,5.70
2019-04-29T01:02:27.604Z,5.60
2019-04-29T01:04:57.280Z,5.50
2019-04-29T01:07:26.745Z,5.50
2019-04-29T01:09:56.264Z,5.40
2019-04-29T01:12:25.464Z,5.40
2019-04-29T01:14:54.638Z,5.40
2019-04-29T01:17:24.844Z,5.40
2019-04-29T01:19:54.764Z,5.40
2019-04-29T01:22:24.711Z,5.50
2019-04-29T01:24:53.806Z,5.40
2019-04-29T01:27:31.164Z,5.40
2019-04-29T01:30:00.248Z,5.40
2019-04-29T01:32:29.716Z,5.40
2019-04-29T01:35:00.085Z,5.40
2019-04-29T01:37:54.600Z,5.40
2019-04-29T01:40:45.076Z,5.30
2019-04-29T01:43:15.478Z,5.20
2019-04-29T01:45:44.425Z,5.20
2019-04-29T01:48:13.882Z,5.20
2019-04-29T01:50:43.575Z,5.20
2019-04-29T01:53:13.014Z,5.30
2019-04-29T01:55:42.177Z,5.30
2019-04-29T01:58:11.280Z,5.30
2019-04-29T02:00:40.772Z,5.30
2019-04-29T02:03:09.849Z,5.40
2019-04-29T02:05:39.040Z,5.30
2019-04-29T02:08:08.328Z,5.30
2019-04-29T02:10:37.543Z,5.30
2019-04-29T02:13:06.852Z,5.30
2019-04-29T02:15:37.430Z,5.30
2019-04-29T02:18:06.613Z,5.20
2019-04-29T02:20:36.019Z,5.20
2019-04-29T02:23:24.676Z,5.30
2019-04-29T02:25:54.157Z,5.30
2019-04-29T02:28:23.339Z,5.30
2019-04-29T02:30:52.871Z,5.20
2019-04-29T02:33:22.182Z,5.10
2019-04-29T02:35:51.772Z,5.10
2019-04-29T02:38:37.324Z,5.10
2019-04-29T02:41:16.617Z,5.20
2019-04-29T02:43:47.826Z,5.10
2019-04-29T02:46:17.237Z,5.00
2019-04-29T02:48:47.118Z,5.00
2019-04-29T02:51:35.284Z,4.90
2019-04-29T02:54:06.218Z,4.90
2019-04-29T02:56:35.361Z,4.90
2019-04-29T02:59:05.887Z,4.90
2019-04-29T03:01:43.795Z,4.90
2019-04-29T03:04:38.284Z,4.90
2019-04-29T03:07:09.265Z,4.80
2019-04-29T03:09:46.510Z,4.80
2019-04-29T03:12:16.018Z,4.80
2019-04-29T03:14:45.491Z,4.80
2019-04-29T03:17:18.626Z,4.80
2019-04-29T03:20:05.164Z,4.70
2019-04-29T03:22:34.749Z,4.70
2019-04-29T03:25:04.193Z,4.70
2019-04-29T03:30:07.977Z,4.70
2019-04-29T03:32:37.374Z,4.60
2019-04-29T03:35:07.084Z,4.60
2019-04-29T03:37:36.256Z,4.60
2019-04-29T03:40:05.768Z,4.60
2019-04-29T03:42:35.222Z,4.80
2019-04-29T03:45:04.920Z,4.80
2019-04-29T03:47:34.371Z,4.80
2019-04-29T03:50:03.623Z,4.80
2019-04-29T03:52:33.064Z,4.70
2019-04-29T03:55:02.465Z,4.60
2019-04-29T03:57:35.820Z,4.60
2019-04-29T04:00:06.043Z,4.60
2019-04-29T04:02:42.264Z,4.80
2019-04-29T04:05:27.913Z,4.80
2019-04-29T04:08:02.364Z,4.70
2019-04-29T04:10:31.476Z,4.60
2019-04-29T04:13:01.345Z,4.60
2019-04-29T04:15:30.464Z,4.60
2019-04-29T04:18:05.292Z,4.50
2019-04-29T04:20:34.992Z,4.50
2019-04-29T04:23:04.140Z,4.50
2019-04-29T04:25:36.534Z,4.50
2019-04-29T04:28:05.944Z,4.60
2019-04-29T04:30:35.296Z,4.60
2019-04-29T04:33:05.449Z,4.60
2019-04-29T04:35:35.456Z,4.70
2019-04-29T04:38:04.679Z,4.70
2019-04-29T04:40:38.349Z,4.90
2019-04-29T04:43:07.509Z,5.00
2019-04-29T04:45:38.445Z,5.10
2019-04-29T04:48:07.651Z,5.30
2019-04-29T04:50:37.205Z,5.30
2019-04-29T04:53:06.560Z,5.40
2019-04-29T04:55:38.383Z,5.50
2019-04-29T04:58:07.490Z,5.60
2019-04-29T05:00:37.661Z,5.60
2019-04-29T05:03:07.221Z,5.60
2019-04-29T05:08:12.009Z,5.80
2019-04-29T05:10:41.956Z,5.70
2019-04-29T05:13:11.052Z,5.70
2019-04-29T05:15:40.184Z,5.70
2019-04-29T05:18:09.288Z,5.80
2019-04-29T05:20:38.410Z,5.90
2019-04-29T05:23:07.740Z,6.00
2019-04-29T05:25:36.949Z,6.10
2019-04-29T05:28:06.545Z,6.30
2019-04-29T05:30:37.572Z,6.50
2019-04-29T05:33:06.778Z,6.80
2019-04-29T05:36:01.854Z,7.10
2019-04-29T05:38:48.215Z,7.70
2019-04-29T05:41:18.178Z,8.20
2019-04-29T05:43:57.237Z,8.60
2019-04-29T05:46:37.408Z,8.90
2019-04-29T05:49:09.720Z,9.20
2019-04-29T05:52:01.971Z,9.40
2019-04-29T05:54:32.120Z,9.80
2019-04-29T05:57:03.260Z,10.20
2019-04-29T05:59:32.632Z,10.50
2019-04-29T06:02:02.150Z,10.80
2019-04-29T06:04:31.849Z,11.00
2019-04-29T06:07:00.929Z,10.60
2019-04-29T06:09:30.342Z,10.40
2019-04-29T06:12:00.674Z,10.70
2019-04-29T06:14:31.094Z,10.80
2019-04-29T06:17:02.928Z,11.20
2019-04-29T06:19:35.218Z,11.30
2019-04-29T06:22:03.985Z,11.60
2019-04-29T06:24:36.884Z,12.00
2019-04-29T06:27:05.781Z,12.40
2019-04-29T06:29:36.041Z,12.70
2019-04-29T06:32:07.798Z,13.10
2019-04-29T06:34:40.014Z,13.20
2019-04-29T06:37:08.673Z,13.60
2019-04-29T06:42:15.454Z,13.70
2019-04-29T06:44:49.127Z,13.60
2019-04-29T06:47:17.309Z,13.70
2019-04-29T06:49:46.804Z,13.70
2019-04-29T06:52:16.462Z,13.70
2019-04-29T06:54:46.044Z,14.00
2019-04-29T06:57:15.236Z,14.20
2019-04-29T06:59:47.488Z,14.20
2019-04-29T07:02:16.093Z,14.30
2019-04-29T07:04:45.403Z,14.50
2019-04-29T07:07:15.045Z,14.80
2019-04-29T07:09:44.056Z,15.10
2019-04-29T07:12:13.987Z,14.50
2019-04-29T07:14:43.613Z,14.60
2019-04-29T07:17:13.431Z,14.60
2019-04-29T07:19:42.551Z,15.00
2019-04-29T07:22:11.688Z,15.10
2019-04-29T07:24:40.878Z,15.00
2019-04-29T07:27:10.103Z,14.70
2019-04-29T07:29:40.676Z,15.00
2019-04-29T07:32:10.732Z,15.10
2019-04-29T07:34:40.094Z,15.10
2019-04-29T07:37:09.378Z,14.90
2019-04-29T07:39:39.013Z,14.70
2019-04-29T07:42:08.567Z,14.70
2019-04-29T07:44:48.969Z,14.60
2019-04-29T07:47:18.042Z,15.00
2019-04-29T07:49:51.508Z,15.30
2019-04-29T07:52:20.439Z,15.70
2019-04-29T07:55:09.478Z,15.70
2019-04-29T07:57:53.913Z,16.10
2019-04-29T08:00:33.303Z,16.00
2019-04-29T08:03:04.270Z,16.00
2019-04-29T08:05:35.192Z,16.20
2019-04-29T08:08:04.540Z,16.50
2019-04-29T08:10:34.696Z,16.60
2019-04-29T08:13:04.820Z,16.70
2019-04-29T08:15:36.733Z,17.00
2019-04-29T08:18:06.831Z,17.10
2019-04-29T08:20:39.742Z,17.40
2019-04-29T08:23:07.213Z,17.40
2019-04-29T08:25:36.473Z,17.10
2019-04-29T08:28:05.945Z,17.20
2019-04-29T08:30:35.145Z,17.10
2019-04-29T08:33:07.512Z,17.10
2019-04-29T08:35:36.831Z,16.80
2019-04-29T08:38:07.860Z,17.00
2019-04-29T08:40:37.080Z,17.10
2019-04-29T08:43:25.696Z,17.10
2019-04-29T08:46:05.950Z,17.10
2019-04-29T08:48:35.281Z,17.30
2019-04-29T08:51:04.981Z,17.40
2019-04-29T08:53:34.982Z,17.60
2019-04-29T08:56:05.548Z,17.30
2019-04-29T08:58:39.034Z,17.30
2019-04-29T09:01:07.303Z,17.60
2019-04-29T09:03:40.563Z,17.80
2019-04-29T09:06:07.755Z,17.40
2019-04-29T09:08:36.913Z,17.30
2019-04-29T09:11:08.170Z,17.40
2019-04-29T09:13:37.392Z,17.20
2019-04-29T09:16:07.669Z,17.20
2019-04-29T09:18:37.117Z,17.50
2019-04-29T09:21:06.350Z,17.90
2019-04-29T09:23:37.072Z,18.30
2019-04-29T09:26:28.029Z,18.60
2019-04-29T09:28:59.788Z,18.60
2019-04-29T09:31:29.960Z,17.80
2019-04-29T09:34:06.309Z,17.60
2019-04-29T09:36:30.401Z,17.20
2019-04-29T09:38:59.659Z,17.10
2019-04-29T09:41:49.293Z,16.90
2019-04-29T09:44:44.537Z,16.80
2019-04-29T09:47:11.343Z,16.90
2019-04-29T09:49:40.825Z,17.20
2019-04-29T09:52:11.496Z,17.60
2019-04-29T09:54:40.723Z,17.90
2019-04-29T09:57:10.942Z,17.70
2019-04-29T09:59:45.003Z,17.60
2019-04-29T10:02:21.864Z,17.60
2019-04-29T10:05:00.570Z,17.50
2019-04-29T10:07:29.797Z,17.10
2019-04-29T10:10:02.378Z,16.80
2019-04-29T10:12:31.670Z,16.70
2019-04-29T10:15:00.889Z,17.00
2019-04-29T10:18:01.385Z,17.50
2019-04-29T10:20:38.608Z,17.70
2019-04-29T10:23:08.108Z,17.60
2019-04-29T10:25:37.727Z,18.00
2019-04-29T10:28:07.513Z,18.00
2019-04-29T10:30:36.744Z,17.60
2019-04-29T10:33:05.903Z,17.40
2019-04-29T10:35:36.444Z,16.60
2019-04-29T10:38:06.391Z,16.50
2019-04-29T10:40:56.478Z,16.60
2019-04-29T10:43:55.566Z,16.90
2019-04-29T10:46:42.649Z,17.30
2019-04-29T10:49:23.784Z,17.70
2019-04-29T10:51:57.964Z,18.10
2019-04-29T10:54:26.298Z,18.30
2019-04-29T10:56:57.420Z,17.90
2019-04-29T10:59:35.642Z,17.40
2019-04-29T11:02:37.789Z,17.00
2019-04-29T11:05:30.088Z,16.90
2019-04-29T11:08:19.480Z,16.80
2019-04-29T11:10:49.597Z,17.00
2019-04-29T11:13:18.764Z,17.40
2019-04-29T11:15:49.373Z,17.70
2019-04-29T11:18:23.291Z,17.30
2019-04-29T11:20:53.790Z,17.20
2019-04-29T11:23:42.576Z,17.00
2019-04-29T11:26:22.485Z,16.60
2019-04-29T11:28:52.370Z,16.70
2019-04-29T11:31:22.100Z,17.30
2019-04-29T11:34:01.746Z,17.70
2019-04-29T11:36:34.929Z,18.10
2019-04-29T11:39:03.206Z,18.00
2019-04-29T11:41:33.413Z,18.10
2019-04-29T11:44:02.923Z,17.70
2019-04-29T11:46:32.211Z,17.90
2019-04-29T11:49:03.053Z,18.30
2019-04-29T11:51:47.331Z,18.10
2019-04-29T11:54:12.323Z,18.00
2019-04-29T11:56:42.853Z,17.20
2019-04-29T11:59:29.983Z,16.90
2019-04-29T12:02:17.419Z,17.00
2019-04-29T12:04:53.620Z,17.30
2019-04-29T12:07:31.690Z,17.30
2019-04-29T12:12:29.868Z,17.00
2019-04-29T12:15:27.322Z,16.80
2019-04-29T12:18:13.906Z,16.80
2019-04-29T12:21:02.043Z,17.30
2019-04-29T12:23:33.225Z,17.90
2019-04-29T12:26:04.724Z,17.40
2019-04-29T12:28:37.972Z,17.20
2019-04-29T12:31:12.900Z,17.10
2019-04-29T12:33:48.471Z,17.30
2019-04-29T12:36:17.775Z,17.60
2019-04-29T12:39:21.569Z,17.80
2019-04-29T12:42:05.758Z,17.60
2019-04-29T12:44:50.795Z,17.10
2019-04-29T12:47:26.682Z,17.20
2019-04-29T12:49:55.332Z,17.50
2019-04-29T12:52:26.456Z,17.60
2019-04-29T12:54:55.977Z,17.50
2019-04-29T12:57:25.356Z,17.40
2019-04-29T12:59:55.239Z,17.70
2019-04-29T13:02:43.601Z,18.20
2019-04-29T13:05:31.946Z,18.60
2019-04-29T13:08:07.714Z,18.20
2019-04-29T13:10:44.220Z,17.80
2019-04-29T13:13:15.770Z,17.40
2019-04-29T13:18:55.647Z,17.40
2019-04-29T13:21:25.203Z,18.00
2019-04-29T13:24:05.306Z,17.70
2019-04-29T13:26:28.399Z,17.40
2019-04-29T13:29:00.797Z,17.30
2019-04-29T13:31:38.212Z,17.30
2019-04-29T13:34:14.721Z,17.30
2019-04-29T13:36:34.631Z,17.20
2019-04-29T13:39:05.320Z,17.20
2019-04-29T13:41:34.913Z,17.10
2019-04-29T13:44:07.088Z,17.20
2019-04-29T13:46:53.935Z,17.50
2019-04-29T13:49:33.093Z,17.60
2019-04-29T13:52:02.717Z,17.70
2019-04-29T13:54:37.214Z,17.50
2019-04-29T13:57:11.376Z,17.30
2019-04-29T14:00:06.693Z,17.40
2019-04-29T14:02:40.396Z,17.60
2019-04-29T14:05:10.457Z,17.70
2019-04-29T14:07:42.162Z,17.70
2019-04-29T14:10:14.820Z,17.60
2019-04-29T14:12:49.022Z,17.70
2019-04-29T14:15:15.201Z,17.80
2019-04-29T14:17:44.725Z,17.60
2019-04-29T14:23:08.521Z,17.30
2019-04-29T14:25:39.935Z,17.10
2019-04-29T14:28:09.147Z,17.00
2019-04-29T14:30:39.356Z,17.00
2019-04-29T14:33:09.340Z,16.90
2019-04-29T14:35:59.781Z,17.00
2019-04-29T14:38:29.040Z,17.00
2019-04-29T14:40:58.220Z,16.80
2019-04-29T14:43:45.553Z,17.00
2019-04-29T14:46:40.170Z,17.10
2019-04-29T14:49:20.853Z,17.20
2019-04-29T14:51:50.335Z,17.40
2019-04-29T14:54:20.717Z,17.50
2019-04-29T14:56:49.833Z,17.30
2019-04-29T14:59:19.937Z,17.30
2019-04-29T15:01:57.800Z,17.20
2019-04-29T15:04:30.828Z,17.30
2019-04-29T15:07:00.210Z,17.10
2019-04-29T15:09:29.992Z,17.10
2019-04-29T15:12:05.700Z,17.00
2019-04-29T15:14:43.221Z,16.90
2019-04-29T15:17:22.012Z,16.90
2019-04-29T15:19:58.375Z,16.90
2019-04-29T15:22:31.288Z,17.00
2019-04-29T15:25:02.045Z,16.80
2019-04-29T15:27:31.584Z,16.80
2019-04-29T15:30:01.369Z,16.80
2019-04-29T15:32:31.284Z,16.90
2019-04-29T15:35:03.985Z,17.00
2019-04-29T15:37:33.478Z,16.90
2019-04-29T15:40:03.056Z,16.90
2019-04-29T15:42:32.260Z,16.70
2019-04-29T15:45:01.698Z,16.60
2019-04-29T15:47:31.800Z,16.60
2019-04-29T15:50:11.220Z,16.70
2019-04-29T15:52:32.009Z,16.60
2019-04-29T15:55:01.554Z,16.70
2019-04-29T15:57:31.160Z,16.60
2019-04-29T16:00:03.716Z,16.50
2019-04-29T16:02:31.305Z,16.50
2019-04-29T16:05:09.129Z,16.50
2019-04-29T16:07:55.837Z,16.40
2019-04-29T16:10:45.104Z,16.30
2019-04-29T16:13:16.378Z,16.20
2019-04-29T16:15:45.528Z,16.10
2019-04-29T16:18:15.443Z,16.10
2019-04-29T16:20:44.768Z,16.10
2019-04-29T16:23:15.173Z,16.10
2019-04-29T16:25:46.178Z,16.10
2019-04-29T16:28:31.564Z,16.10
2019-04-29T16:31:09.417Z,16.10
2019-04-29T16:33:34.740Z,16.10
2019-04-29T16:36:05.294Z,16.10
2019-04-29T16:38:35.539Z,16.00
2019-04-29T16:41:19.510Z,15.90
2019-04-29T16:43:47.966Z,15.90
2019-04-29T16:46:23.464Z,15.90
2019-04-29T16:48:51.268Z,15.70
2019-04-29T16:51:20.766Z,15.70
2019-04-29T16:53:50.228Z,15.60
2019-04-29T16:56:19.796Z,15.50
2019-04-29T16:59:09.148Z,15.50
2019-04-29T17:01:37.457Z,15.50
2019-04-29T17:04:07.378Z,15.50
2019-04-29T17:06:41.663Z,15.50
2019-04-29T17:09:26.059Z,15.60
2019-04-29T17:11:58.429Z,15.50
2019-04-29T17:14:27.987Z,15.40
2019-04-29T17:16:57.293Z,15.40
2019-04-29T17:19:26.513Z,15.40
2019-04-29T17:24:27.513Z,15.20
2019-04-29T17:27:17.266Z,15.20
2019-04-29T17:30:11.685Z,15.20
2019-04-29T17:33:12.314Z,15.10
2019-04-29T17:35:17.705Z,15.30
2019-04-29T17:35:47.098Z,15.00
2019-04-29T17:38:13.191Z,14.90
2019-04-29T17:40:50.935Z,14.90
2019-04-29T17:43:24.010Z,14.80
2019-04-29T17:46:12.708Z,14.80
2019-04-29T17:48:54.103Z,14.80
2019-04-29T17:51:24.803Z,14.80
2019-04-29T17:54:01.272Z,14.80
2019-04-29T17:56:45.120Z,14.80
2019-04-29T17:59:30.830Z,14.80
2019-04-29T18:02:22.145Z,14.70
2019-04-29T18:05:03.247Z,14.70
2019-04-29T18:07:35.771Z,14.60
2019-04-29T18:10:24.327Z,14.60
2019-04-29T18:12:52.812Z,14.50
2019-04-29T18:15:25.660Z,14.50
2019-04-29T18:17:55.955Z,14.50
2019-04-29T18:20:35.760Z,14.50
2019-04-29T18:23:32.849Z,14.50
2019-04-29T18:26:14.841Z,14.50
2019-04-29T18:28:45.783Z,14.40
2019-04-29T18:31:14.821Z,14.40
2019-04-29T18:33:45.091Z,14.40
2019-04-29T18:36:23.510Z,14.30
2019-04-29T18:38:47.523Z,14.20
2019-04-29T18:41:25.423Z,14.30
2019-04-29T18:43:48.969Z,14.10
2019-04-29T18:46:18.087Z,14.10
2019-04-29T18:48:47.196Z,14.10
2019-04-29T18:51:20.726Z,14.20
2019-04-29T18:53:47.684Z,14.10
2019-04-29T18:56:17.097Z,14.10
2019-04-29T18:58:50.110Z,14.10
2019-04-29T19:01:19.652Z,14.00
2019-04-29T19:04:19.259Z,14.00
2019-04-29T19:06:51.244Z,14.00
2019-04-29T19:09:20.806Z,13.90
2019-04-29T19:11:53.023Z,13.90
2019-04-29T19:14:26.282Z,13.90
2019-04-29T19:16:56.786Z,13.90
2019-04-29T19:19:25.316Z,13.80
2019-04-29T19:21:55.865Z,13.80
2019-04-29T19:24:27.516Z,13.80
2019-04-29T19:27:00.516Z,13.80
2019-04-29T19:29:28.668Z,13.70
2019-04-29T19:31:58.244Z,13.70
2019-04-29T19:34:39.420Z,13.60
2019-04-29T19:36:59.511Z,13.60
2019-04-29T19:39:28.692Z,13.60
2019-04-29T19:41:57.835Z,13.50
2019-04-29T19:44:33.338Z,13.40
2019-04-29T19:46:59.153Z,13.40
2019-04-29T19:49:28.684Z,13.40
2019-04-29T19:51:58.092Z,13.40
2019-04-29T19:54:28.555Z,13.40
2019-04-29T19:57:03.575Z,13.40
2019-04-29T19:59:30.068Z,13.40
2019-04-29T20:02:05.520Z,13.40
2019-04-29T20:04:42.450Z,13.40
2019-04-29T20:07:12.270Z,13.30
2019-04-29T20:09:43.005Z,13.20
2019-04-29T20:12:17.133Z,13.10
2019-04-29T20:14:45.911Z,13.10
2019-04-29T20:17:49.095Z,13.10
2019-04-29T20:20:35.021Z,13.00
2019-04-29T20:23:03.166Z,13.00
2019-04-29T20:25:37.935Z,13.00
2019-04-29T20:28:06.724Z,12.90
2019-04-29T20:30:34.948Z,12.90
2019-04-29T20:33:11.052Z,12.90
2019-04-29T20:35:40.554Z,12.80
2019-04-29T20:38:09.294Z,12.90
2019-04-29T20:40:42.988Z,12.80
2019-04-29T20:43:09.928Z,12.80
2019-04-29T20:45:39.771Z,12.80
2019-04-29T20:48:11.121Z,12.70
2019-04-29T20:50:41.114Z,12.70
2019-04-29T20:53:25.642Z,12.70
2019-04-29T20:55:55.480Z,12.60
2019-04-29T20:58:31.511Z,12.60
2019-04-29T21:01:02.600Z,12.70
2019-04-29T21:03:29.810Z,12.70
2019-04-29T21:06:02.748Z,12.60
2019-04-29T21:08:28.506Z,12.60
2019-04-29T21:10:59.684Z,12.60
2019-04-29T21:13:48.889Z,12.60
2019-04-29T21:19:17.276Z,12.50
2019-04-29T21:21:47.540Z,12.50
2019-04-29T21:24:18.570Z,12.50
2019-04-29T21:26:48.976Z,12.50
2019-04-29T21:29:19.364Z,12.50
2019-04-29T21:31:50.601Z,12.50
2019-04-29T21:34:21.836Z,12.50
2019-04-29T21:37:15.804Z,12.50
2019-04-29T21:39:55.084Z,12.40
2019-04-29T21:42:47.298Z,12.30
2019-04-29T21:45:18.144Z,12.30
2019-04-29T21:47:52.973Z,12.20
2019-04-29T21:50:18.831Z,12.20
2019-04-29T21:52:48.865Z,12.10
2019-04-29T21:55:20.528Z,12.10
2019-04-29T21:57:49.044Z,12.00
2019-04-29T22:00:24.078Z,12.00
2019-04-29T22:02:49.668Z,12.00
2019-04-29T22:05:18.803Z,12.00
2019-04-29T22:07:47.932Z,12.00
2019-04-29T22:10:19.810Z,12.10
2019-04-29T22:12:50.951Z,12.10
2019-04-29T22:15:32.035Z,12.10
2019-04-29T22:17:56.357Z,12.10
2019-04-29T22:20:23.147Z,12.10
2019-04-29T22:22:53.237Z,12.10
2019-04-29T22:25:22.308Z,12.10
2019-04-29T22:27:51.405Z,12.10
2019-04-29T22:30:21.122Z,12.00
2019-04-29T22:32:51.850Z,12.00
2019-04-29T22:35:21.737Z,12.00
2019-04-29T22:37:50.846Z,12.00
2019-04-29T22:40:20.800Z,12.00
2019-04-29T22:43:08.421Z,12.00
2019-04-29T22:45:33.993Z,12.00
2019-04-29T22:48:14.688Z,12.10
2019-04-29T22:50:38.306Z,12.00
2019-04-29T22:53:08.753Z,12.00
2019-04-29T22:55:38.800Z,12.00
2019-04-29T22:58:10.115Z,12.00
2019-04-29T23:00:41.124Z,12.00
2019-04-29T23:03:10.981Z,12.00
2019-04-29T23:05:41.653Z,12.00
2019-04-29T23:08:11.088Z,12.00
2019-04-29T23:10:40.344Z,12.00
2019-04-29T23:13:09.814Z,11.90
2019-04-29T23:15:39.326Z,11.90
2019-04-29T23:18:09.420Z,11.90
2019-04-29T23:21:09.851Z,11.90
2019-04-29T23:23:45.401Z,11.90
2019-04-29T23:26:14.836Z,11.90
2019-04-29T23:28:46.133Z,11.90
2019-04-29T23:31:15.255Z,11.90
2019-04-29T23:33:46.247Z,11.90
2019-04-29T23:36:15.986Z,12.00
2019-04-29T23:38:47.182Z,11.90
2019-04-29T23:41:16.312Z,12.00
2019-04-29T23:43:46.183Z,12.00
2019-04-29T23:46:16.137Z,12.00
2019-04-29T23:48:46.806Z,12.00
2019-04-29T23:51:17.110Z,11.90
2019-04-29T23:53:46.318Z,11.90
2019-04-29T23:56:15.816Z,11.90
2019-04-29T23:58:55.403Z,11.90
